Time;durP1;ratioP1;P1;durP2;ratioP2;P2;SDS_P1;SDS_P2;PMS_P1;PMS_P2;Temp;Humidity;BMP_temperature;BMP_pressure;BME280_temperature;BME280_humidity;BME280_pressure;Samples;Min_cycle;Max_cycle;Signal;HPM_P1;HPM_P2
2022/11/03 00:00:56;;;;;;;3.15;2.85;;;6.60;99.90;;;;;;5029928;28;20245;-68
2022/11/03 00:03:23;;;;;;;3.60;2.85;;;6.60;99.90;;;;;;5029803;28;20210;-68
2022/11/03 00:06:05;;;;;;;3.05;2.60;;;6.60;99.90;;;;;;5033576;28;20228;-67
2022/11/03 00:08:32;;;;;;;2.50;2.13;;;6.60;99.90;;;;;;5019466;28;20580;-68
2022/11/03 00:11:06;;;;;;;5.07;2.60;;;6.60;99.90;;;;;;5013761;28;20199;-67
2022/11/03 00:13:34;;;;;;;3.88;2.90;;;6.50;99.90;;;;;;5013220;28;20201;-68
2022/11/03 00:16:01;;;;;;;4.45;3.03;;;6.60;99.90;;;;;;5013732;28;20223;-68
2022/11/03 00:18:28;;;;;;;5.50;3.15;;;6.60;99.90;;;;;;5013756;28;20203;-68
2022/11/03 00:20:59;;;;;;;3.40;2.65;;;6.60;99.90;;;;;;5013184;28;20222;-68
2022/11/03 00:23:28;;;;;;;3.83;2.75;;;6.60;99.90;;;;;;5013192;28;20263;-68
2022/11/03 00:25:55;;;;;;;2.60;2.33;;;6.50;99.90;;;;;;5013691;28;20298;-67
2022/11/03 00:28:22;;;;;;;3.55;2.78;;;6.50;99.90;;;;;;5013672;28;20674;-67
2022/11/03 00:30:50;;;;;;;3.38;2.78;;;6.50;99.90;;;;;;5013545;28;20209;-68
2022/11/03 00:33:17;;;;;;;3.28;2.70;;;6.50;99.90;;;;;;5012851;28;20210;-68
2022/11/03 00:35:44;;;;;;;3.45;2.80;;;6.50;99.90;;;;;;5013093;28;20278;-67
2022/11/03 00:38:10;;;;;;;4.13;3.72;;;6.50;99.90;;;;;;5013415;28;20199;-68
2022/11/03 00:40:37;;;;;;;3.80;2.85;;;6.40;99.90;;;;;;5012710;28;20226;-68
2022/11/03 00:43:04;;;;;;;3.47;2.50;;;6.40;99.90;;;;;;5012614;28;20214;-68
2022/11/03 00:45:30;;;;;;;2.70;2.20;;;6.40;99.90;;;;;;5012802;28;20248;-67
2022/11/03 00:50:43;;;;;;;4.88;3.10;;;6.30;99.90;;;;;;5012732;28;20294;-68
2022/11/03 00:53:09;;;;;;;2.83;2.45;;;6.30;99.90;;;;;;5012379;28;20203;-68
2022/11/03 00:55:36;;;;;;;2.85;2.42;;;6.30;99.90;;;;;;5012623;28;20230;-68
2022/11/03 00:58:03;;;;;;;3.45;2.30;;;6.20;99.90;;;;;;5012788;28;20207;-68
2022/11/03 01:00:29;;;;;;;2.85;2.40;;;6.20;99.90;;;;;;5012433;28;20227;-68
2022/11/03 01:02:58;;;;;;;3.35;3.00;;;6.20;99.90;;;;;;5012061;28;20204;-68
2022/11/03 01:08:08;;;;;;;3.15;2.25;;;6.10;99.90;;;;;;5012547;28;20606;-69
2022/11/03 01:11:42;;;;;;;3.70;3.38;;;6.00;99.90;;;;;;5012420;28;20210;-68
2022/11/03 01:13:24;;;;;;;4.50;2.60;;;6.10;99.90;;;;;;5011919;28;20714;-67
2022/11/03 01:15:51;;;;;;;4.50;2.90;;;6.10;99.90;;;;;;5011041;28;20220;-68
2022/11/03 01:18:19;;;;;;;4.13;2.20;;;6.00;99.90;;;;;;5012497;28;20199;-68
2022/11/03 01:20:46;;;;;;;3.55;2.35;;;6.00;99.90;;;;;;5011817;28;20234;-67
2022/11/03 01:23:13;;;;;;;5.88;2.75;;;6.00;99.90;;;;;;5011976;28;20583;-68
2022/11/03 01:25:39;;;;;;;3.20;2.40;;;6.00;99.90;;;;;;5011874;28;20709;-68
2022/11/03 01:28:06;;;;;;;5.20;2.70;;;6.00;99.90;;;;;;5012386;28;20233;-67
2022/11/03 01:30:33;;;;;;;4.10;2.80;;;6.00;99.90;;;;;;5011958;28;20572;-67
2022/11/03 01:33:00;;;;;;;3.17;2.83;;;6.00;99.90;;;;;;5011334;28;20211;-67
2022/11/03 01:35:28;;;;;;;3.05;2.72;;;6.00;99.90;;;;;;5012011;28;20223;-67
2022/11/03 01:37:55;;;;;;;4.10;2.25;;;6.00;99.90;;;;;;5011906;28;20199;-67
2022/11/03 01:40:22;;;;;;;3.65;2.63;;;6.00;99.90;;;;;;5011820;28;20903;-67
2022/11/03 01:42:49;;;;;;;5.22;2.75;;;5.90;99.90;;;;;;5011113;28;20230;-67
2022/11/03 01:45:15;;;;;;;7.03;2.22;;;6.00;99.90;;;;;;5011828;28;20222;-68
2022/11/03 01:47:43;;;;;;;2.50;2.30;;;6.00;99.90;;;;;;5011726;28;20218;-67
2022/11/03 01:50:13;;;;;;;3.65;2.88;;;6.00;99.90;;;;;;5011557;28;20693;-68
2022/11/03 01:52:45;;;;;;;3.45;1.90;;;6.00;99.90;;;;;;5011171;28;20587;-67
2022/11/03 01:55:15;;;;;;;3.58;2.30;;;5.90;99.90;;;;;;5011583;28;20232;-67
2022/11/03 01:57:48;;;;;;;3.50;2.03;;;5.90;99.90;;;;;;5011589;28;20212;-67
2022/11/03 02:00:16;;;;;;;3.47;2.10;;;5.90;99.90;;;;;;5011415;28;20207;-67
2022/11/03 02:02:43;;;;;;;3.17;2.45;;;5.90;99.90;;;;;;5010858;28;20207;-67
2022/11/03 02:05:12;;;;;;;3.53;2.53;;;5.90;99.90;;;;;;5011409;28;20233;-67
2022/11/03 02:07:47;;;;;;;3.15;2.22;;;5.90;99.90;;;;;;5011191;28;20203;-67
2022/11/03 02:10:13;;;;;;;9.00;2.63;;;5.90;99.90;;;;;;5011517;28;20203;-68
2022/11/03 02:12:41;;;;;;;3.15;2.55;;;5.90;99.90;;;;;;5010597;28;20226;-67
2022/11/03 02:15:11;;;;;;;3.00;1.92;;;5.90;99.90;;;;;;5011066;28;20226;-67
2022/11/03 02:17:41;;;;;;;7.18;2.30;;;6.00;99.90;;;;;;5011139;28;20207;-67
2022/11/03 02:20:11;;;;;;;4.00;1.92;;;6.00;99.90;;;;;;5011296;28;20211;-67
2022/11/03 02:23:18;;;;;;;3.08;2.50;;;6.00;99.90;;;;;;5010609;28;20203;-67
2022/11/03 02:25:47;;;;;;;4.50;2.13;;;6.00;99.90;;;;;;5004626;28;20274;-67
2022/11/03 02:28:17;;;;;;;4.80;2.83;;;6.00;99.90;;;;;;5011053;28;20203;-67
2022/11/03 02:30:48;;;;;;;2.45;1.85;;;6.00;99.90;;;;;;5010698;28;20205;-67
2022/11/03 02:33:27;;;;;;;3.15;2.08;;;6.00;99.90;;;;;;5010662;28;20588;-67
2022/11/03 02:36:00;;;;;;;2.58;2.03;;;6.00;99.90;;;;;;5010747;28;20730;-67
2022/11/03 02:38:30;;;;;;;4.22;2.10;;;6.00;99.90;;;;;;5010913;28;20207;-67
2022/11/03 02:41:03;;;;;;;2.55;2.20;;;6.00;99.90;;;;;;5010438;28;20229;-67
2022/11/03 02:43:31;;;;;;;2.90;2.10;;;6.00;99.90;;;;;;5010137;28;20580;-67
2022/11/03 02:45:57;;;;;;;3.67;2.30;;;6.00;99.90;;;;;;5010805;28;20226;-67
2022/11/03 02:48:24;;;;;;;2.88;2.25;;;5.90;99.90;;;;;;5010778;28;20203;-67
2022/11/03 02:50:51;;;;;;;6.18;2.70;;;5.90;99.90;;;;;;5010656;28;20203;-67
2022/11/03 02:53:19;;;;;;;2.33;2.10;;;5.90;99.90;;;;;;5010374;28;20215;-67
2022/11/03 02:55:53;;;;;;;6.00;2.90;;;5.90;99.90;;;;;;5010626;28;20226;-67
2022/11/03 02:58:28;;;;;;;4.07;2.28;;;5.90;99.90;;;;;;5010813;28;20219;-67
2022/11/03 03:01:00;;;;;;;3.55;2.50;;;5.90;99.90;;;;;;5010367;28;20591;-67
2022/11/03 03:03:31;;;;;;;2.00;1.80;;;5.90;99.90;;;;;;5010115;28;20212;-67
2022/11/03 03:06:01;;;;;;;2.88;2.25;;;5.90;99.90;;;;;;5010566;28;20697;-67
2022/11/03 03:08:30;;;;;;;3.30;2.60;;;5.80;99.90;;;;;;5010689;28;20298;-67
2022/11/03 03:11:00;;;;;;;5.63;2.17;;;5.80;99.90;;;;;;5010424;28;20203;-66
2022/11/03 03:13:28;;;;;;;5.15;2.67;;;5.80;99.90;;;;;;5009952;28;20204;-67
2022/11/03 03:16:06;;;;;;;2.35;2.03;;;5.70;99.90;;;;;;5010728;28;20231;-67
2022/11/03 03:18:47;;;;;;;3.17;2.50;;;5.70;99.90;;;;;;5010429;28;20199;-67
2022/11/03 03:21:19;;;;;;;3.70;2.53;;;5.60;99.90;;;;;;5010037;28;20227;-67
2022/11/03 03:23:50;;;;;;;4.13;2.35;;;5.60;99.90;;;;;;5010239;28;20251;-67
2022/11/03 03:26:24;;;;;;;4.93;1.92;;;5.50;99.90;;;;;;5010537;28;20227;-68
2022/11/03 03:28:55;;;;;;;6.80;2.60;;;5.50;99.90;;;;;;5010050;28;20230;-68
2022/11/03 03:31:25;;;;;;;3.80;2.72;;;5.40;99.90;;;;;;5010008;28;20199;-67
2022/11/03 03:33:54;;;;;;;4.57;2.53;;;5.50;99.90;;;;;;5010375;28;20678;-68
2022/11/03 03:36:24;;;;;;;7.72;2.25;;;5.40;99.90;;;;;;5010397;28;20229;-67
2022/11/03 03:38:55;;;;;;;3.10;2.30;;;5.40;99.90;;;;;;5010874;28;20230;-67
2022/11/03 03:41:24;;;;;;;2.38;2.00;;;5.40;99.90;;;;;;5013302;28;20233;-68
2022/11/03 03:43:55;;;;;;;5.72;2.70;;;5.40;99.90;;;;;;5013907;28;20199;-68
2022/11/03 03:46:26;;;;;;;3.30;2.30;;;5.40;99.90;;;;;;5014012;28;20204;-68
2022/11/03 03:48:53;;;;;;;4.30;2.25;;;5.40;99.90;;;;;;5013900;28;20203;-67
2022/11/03 03:51:24;;;;;;;3.35;2.10;;;5.40;99.90;;;;;;5013423;28;20226;-68
2022/11/03 03:53:51;;;;;;;2.47;2.13;;;5.40;99.90;;;;;;5013680;28;20579;-68
2022/11/03 03:56:21;;;;;;;4.00;2.30;;;5.40;99.90;;;;;;5013938;28;20209;-68
2022/11/03 03:58:48;;;;;;;3.70;2.20;;;5.40;99.90;;;;;;5013447;28;20230;-68
2022/11/03 04:01:16;;;;;;;2.70;2.25;;;5.40;99.90;;;;;;5013143;28;20224;-67
2022/11/03 04:03:42;;;;;;;4.85;2.70;;;5.40;99.90;;;;;;5013444;28;20215;-68
2022/11/03 04:06:09;;;;;;;4.22;2.47;;;5.30;99.90;;;;;;5013671;28;20227;-68
2022/11/03 04:08:36;;;;;;;2.55;2.08;;;5.30;99.90;;;;;;5013506;28;20211;-68
2022/11/03 04:22:20;;;;;;;3.50;2.50;;;5.30;99.90;;;;;;5012641;28;20722;-68
2022/11/03 04:24:49;;;;;;;3.45;2.42;;;5.30;99.90;;;;;;5013106;28;20235;-67
2022/11/03 04:27:29;;;;;;;2.50;2.30;;;5.30;99.90;;;;;;5013066;28;20210;-68
2022/11/03 04:29:59;;;;;;;2.20;2.00;;;5.30;99.90;;;;;;5013533;28;20233;-67
2022/11/03 04:32:28;;;;;;;3.47;2.47;;;5.20;99.90;;;;;;5012673;28;20210;-67
2022/11/03 04:34:55;;;;;;;2.95;2.38;;;5.20;99.90;;;;;;5013079;28;20586;-67
2022/11/03 04:37:22;;;;;;;5.97;2.38;;;5.20;99.90;;;;;;5013098;28;20258;-67
2022/11/03 04:39:48;;;;;;;4.97;2.72;;;5.20;99.90;;;;;;5012481;28;20207;-68
2022/11/03 04:42:18;;;;;;;3.50;2.67;;;5.20;99.90;;;;;;5012293;28;20222;-67
2022/11/03 04:44:46;;;;;;;3.08;2.53;;;5.20;99.90;;;;;;5012492;28;20231;-67
2022/11/03 04:47:15;;;;;;;8.07;3.15;;;5.20;99.90;;;;;;5012955;28;20204;-67
2022/11/03 04:49:44;;;;;;;3.30;2.60;;;5.10;99.90;;;;;;5012365;28;20233;-67
2022/11/03 04:52:16;;;;;;;2.45;2.25;;;5.10;99.90;;;;;;5012076;28;20604;-68
2022/11/03 04:54:43;;;;;;;4.28;2.38;;;5.10;99.90;;;;;;5012521;28;20223;-67
2022/11/03 04:57:13;;;;;;;2.85;2.25;;;5.00;99.90;;;;;;5012571;28;20210;-68
2022/11/03 04:59:40;;;;;;;2.65;2.45;;;5.00;99.90;;;;;;5012419;28;20277;-68
2022/11/03 05:02:12;;;;;;;2.70;2.50;;;5.00;99.90;;;;;;5011722;28;20228;-68
2022/11/03 05:04:39;;;;;;;2.90;2.50;;;5.00;99.90;;;;;;5012387;28;20232;-67
2022/11/03 05:07:19;;;;;;;2.85;2.35;;;5.00;99.90;;;;;;5012598;28;20587;-67
2022/11/03 05:09:45;;;;;;;4.38;2.50;;;4.90;99.90;;;;;;5012038;28;20212;-67
2022/11/03 05:12:12;;;;;;;2.30;2.10;;;4.90;99.90;;;;;;5011908;28;20200;-68
2022/11/03 05:14:39;;;;;;;3.08;2.65;;;4.90;99.90;;;;;;5019097;28;20219;-68
2022/11/03 05:17:15;;;;;;;2.83;2.00;;;4.90;99.90;;;;;;5032007;28;20210;-68
2022/11/03 05:19:43;;;;;;;3.05;1.92;;;4.90;99.90;;;;;;5031633;28;20217;-67
2022/11/03 05:22:16;;;;;;;3.45;2.00;;;4.90;99.90;;;;;;5031304;28;20217;-68
2022/11/03 05:24:43;;;;;;;2.95;2.28;;;4.90;99.90;;;;;;5032781;28;20223;-68
2022/11/03 05:27:16;;;;;;;2.70;2.20;;;4.90;99.90;;;;;;5032714;28;20679;-68
2022/11/03 05:29:43;;;;;;;2.53;2.33;;;4.90;99.90;;;;;;5032885;28;20674;-68
2022/11/03 05:32:13;;;;;;;3.63;2.88;;;4.90;99.90;;;;;;5031552;28;20758;-68
2022/11/03 05:34:43;;;;;;;3.45;2.35;;;4.90;99.90;;;;;;5031752;28;20724;-69
2022/11/03 05:37:24;;;;;;;3.05;2.40;;;4.80;99.90;;;;;;5031826;28;20225;-68
2022/11/03 05:40:33;;;;;;;3.38;2.63;;;4.80;99.90;;;;;;5065417;22;20248;-90
2022/11/03 05:50:42;;;;;;;4.32;2.10;;;4.80;99.90;;;;;;5034994;28;20212;-90
2022/11/03 05:53:27;;;;;;;3.00;2.28;;;4.80;99.90;;;;;;5054501;28;20196;-90
2022/11/03 06:01:46;;;;;;;3.30;2.38;;;4.80;99.90;;;;;;5047382;28;20240;-69
2022/11/03 06:04:18;;;;;;;3.22;2.10;;;4.80;99.90;;;;;;5042099;28;20566;-68
2022/11/03 06:06:50;;;;;;;8.02;2.65;;;4.80;99.90;;;;;;5040177;28;20206;-69
2022/11/03 06:09:21;;;;;;;3.92;2.63;;;4.80;99.90;;;;;;5036747;28;20203;-70
2022/11/03 06:11:48;;;;;;;4.50;2.40;;;4.80;99.90;;;;;;5030708;28;20195;-71
2022/11/03 06:14:20;;;;;;;2.40;2.20;;;4.80;99.90;;;;;;5032847;28;20318;-71
2022/11/03 06:16:49;;;;;;;2.42;2.15;;;4.80;99.90;;;;;;5051150;28;20229;-70
2022/11/03 06:19:22;;;;;;;3.28;2.25;;;4.80;99.90;;;;;;5050783;28;20202;-68
2022/11/03 06:21:51;;;;;;;4.10;3.20;;;4.80;99.90;;;;;;5050465;28;20736;-70
2022/11/03 06:24:21;;;;;;;2.58;2.38;;;4.80;99.90;;;;;;5050275;28;20375;-70
2022/11/03 06:26:50;;;;;;;3.22;2.28;;;4.80;99.90;;;;;;5050925;28;20209;-70
2022/11/03 06:29:19;;;;;;;5.38;3.03;;;4.80;99.90;;;;;;5050343;28;20542;-70
2022/11/03 06:31:48;;;;;;;4.43;2.20;;;4.70;99.90;;;;;;5049801;28;20215;-69
2022/11/03 06:34:28;;;;;;;3.75;2.65;;;4.80;99.90;;;;;;5050537;28;20218;-68
2022/11/03 06:36:57;;;;;;;2.38;2.17;;;4.80;99.90;;;;;;5050692;28;20208;-68
2022/11/03 06:39:25;;;;;;;2.35;2.05;;;4.80;99.90;;;;;;5050206;28;20619;-68
2022/11/03 06:41:52;;;;;;;8.90;3.10;;;4.80;99.90;;;;;;5049937;28;20694;-68
2022/11/03 06:44:24;;;;;;;2.63;2.40;;;4.80;99.90;;;;;;5050297;28;20228;-67
2022/11/03 06:46:50;;;;;;;4.47;2.30;;;4.80;99.90;;;;;;5051034;28;20237;-68
2022/11/03 06:49:29;;;;;;;4.43;2.92;;;4.90;99.90;;;;;;5050499;28;20202;-68
2022/11/03 06:51:56;;;;;;;4.93;2.60;;;4.90;99.90;;;;;;5050289;28;20692;-68
2022/11/03 06:54:25;;;;;;;4.00;2.50;;;4.90;99.90;;;;;;5050392;28;20222;-69
2022/11/03 06:56:52;;;;;;;2.88;2.58;;;5.00;99.90;;;;;;5050692;28;20244;-69
2022/11/03 06:59:19;;;;;;;2.53;2.33;;;5.10;99.90;;;;;;5050234;28;20672;-68
2022/11/03 07:01:51;;;;;;;4.05;2.78;;;5.10;99.90;;;;;;5049911;28;20604;-68
2022/11/03 07:04:20;;;;;;;2.83;2.00;;;5.20;99.90;;;;;;5050496;28;20221;-69
2022/11/03 07:06:48;;;;;;;4.10;2.88;;;5.30;99.90;;;;;;5050291;28;20208;-69
2022/11/03 07:09:19;;;;;;;4.25;3.13;;;5.30;99.90;;;;;;5050411;28;20255;-69
2022/11/03 07:11:49;;;;;;;3.33;2.83;;;5.40;99.90;;;;;;5049687;28;20619;-69
2022/11/03 07:14:19;;;;;;;3.83;3.47;;;5.60;99.90;;;;;;5051967;28;20222;-71
2022/11/03 07:16:49;;;;;;;4.13;3.17;;;5.70;99.90;;;;;;5054624;28;20212;-68
2022/11/03 07:19:19;;;;;;;3.72;3.10;;;5.80;99.90;;;;;;5054043;28;20199;-68
2022/11/03 07:21:50;;;;;;;3.72;3.13;;;6.00;99.90;;;;;;5053763;28;20224;-69
2022/11/03 07:24:20;;;;;;;4.20;2.88;;;6.10;99.90;;;;;;5054038;28;20226;-69
2022/11/03 07:26:49;;;;;;;5.15;2.85;;;6.20;99.90;;;;;;5054789;28;20205;-69
2022/11/03 07:29:20;;;;;;;5.80;3.25;;;6.40;99.90;;;;;;5054199;28;20765;-69
2022/11/03 07:31:48;;;;;;;5.95;3.17;;;6.70;99.90;;;;;;5054047;28;20667;-69
2022/11/03 07:34:19;;;;;;;3.10;2.80;;;7.10;99.90;;;;;;5054392;28;20252;-69
2022/11/03 07:36:46;;;;;;;8.35;3.47;;;7.50;99.90;;;;;;5054227;28;20576;-69
2022/11/03 07:39:17;;;;;;;6.65;3.53;;;7.80;99.90;;;;;;5053948;28;20204;-68
2022/11/03 07:41:44;;;;;;;3.00;2.58;;;8.00;99.90;;;;;;5046864;28;20205;-66
2022/11/03 07:44:19;;;;;;;4.22;3.33;;;8.20;99.90;;;;;;5052166;28;20211;-67
2022/11/03 07:46:48;;;;;;;6.25;3.70;;;8.20;99.90;;;;;;5052540;28;20306;-67
2022/11/03 07:49:25;;;;;;;4.20;3.17;;;8.30;99.90;;;;;;5051759;28;20213;-69
2022/11/03 07:51:54;;;;;;;8.30;4.30;;;8.40;99.90;;;;;;5052164;28;20245;-68
2022/11/03 07:54:24;;;;;;;4.50;3.05;;;8.40;99.90;;;;;;5052198;28;20232;-68
2022/11/03 07:56:55;;;;;;;3.60;2.80;;;8.40;99.90;;;;;;5052311;28;20279;-72
2022/11/03 07:59:28;;;;;;;8.05;3.58;;;8.50;99.90;;;;;;5052298;28;20232;-68
2022/11/03 08:01:57;;;;;;;3.83;2.75;;;8.60;99.90;;;;;;5051949;28;20215;-69
2022/11/03 08:04:26;;;;;;;6.32;3.30;;;8.70;99.90;;;;;;5051759;28;20254;-68
2022/11/03 08:06:53;;;;;;;6.55;3.67;;;8.70;99.90;;;;;;5052073;28;20307;-68
2022/11/03 08:09:21;;;;;;;6.40;3.60;;;8.80;99.90;;;;;;5051571;28;20459;-68
2022/11/03 08:11:48;;;;;;;4.03;3.17;;;8.80;99.90;;;;;;5051460;28;20215;-68
2022/11/03 08:14:15;;;;;;;4.85;2.22;;;8.90;99.90;;;;;;5052050;28;20642;-67
2022/11/03 08:16:44;;;;;;;2.90;2.53;;;9.00;99.90;;;;;;5051980;28;20271;-69
2022/11/03 08:19:11;;;;;;;7.28;3.28;;;9.10;99.90;;;;;;5051609;28;20236;-66
2022/11/03 08:21:38;;;;;;;4.80;2.80;;;9.30;99.90;;;;;;5050854;28;20232;-67
2022/11/03 08:24:06;;;;;;;4.65;2.75;;;9.50;99.90;;;;;;5051528;28;20221;-69
2022/11/03 08:26:33;;;;;;;3.40;2.55;;;9.60;99.90;;;;;;5050679;28;20209;-67
2022/11/03 08:29:00;;;;;;;4.38;2.75;;;9.70;99.90;;;;;;5052070;28;20204;-70
2022/11/03 08:31:27;;;;;;;3.03;2.72;;;9.80;99.90;;;;;;5051281;28;20209;-68
2022/11/03 08:33:55;;;;;;;5.15;2.58;;;10.00;99.90;;;;;;5051525;28;20205;-69
2022/11/03 08:36:22;;;;;;;2.90;2.25;;;10.10;99.90;;;;;;5051223;28;21011;-69
2022/11/03 08:38:49;;;;;;;4.22;2.50;;;10.20;99.90;;;;;;5051269;28;20212;-70
2022/11/03 08:41:16;;;;;;;2.33;2.13;;;10.30;99.90;;;;;;5050557;28;20201;-70
2022/11/03 08:43:43;;;;;;;2.13;1.90;;;10.40;99.90;;;;;;5051245;28;20225;-70
2022/11/03 08:46:09;;;;;;;7.45;3.25;;;10.50;99.90;;;;;;5051508;28;20225;-69
2022/11/03 08:48:36;;;;;;;3.67;2.47;;;10.50;99.90;;;;;;5050970;28;20202;-70
2022/11/03 08:51:04;;;;;;;3.30;2.55;;;10.50;99.90;;;;;;5050976;28;20217;-67
2022/11/03 08:53:31;;;;;;;3.75;2.80;;;10.60;99.90;;;;;;5050982;28;20205;-68
2022/11/03 08:55:58;;;;;;;3.25;2.67;;;10.60;99.90;;;;;;5049901;28;20224;-67
2022/11/03 08:58:25;;;;;;;4.00;2.35;;;10.50;99.90;;;;;;5052482;28;20202;-68
2022/11/03 09:00:52;;;;;;;5.25;2.75;;;10.40;99.90;;;;;;5052509;28;20241;-68
2022/11/03 09:03:19;;;;;;;3.80;2.45;;;10.40;99.90;;;;;;5051388;28;20229;-68
2022/11/03 09:05:45;;;;;;;4.38;2.90;;;10.40;99.90;;;;;;5052516;28;20243;-68
2022/11/03 09:08:13;;;;;;;3.03;2.50;;;10.40;99.90;;;;;;5052297;28;20205;-68
2022/11/03 09:10:40;;;;;;;2.88;2.67;;;10.50;99.90;;;;;;5051806;28;20213;-68
2022/11/03 09:13:07;;;;;;;3.03;2.47;;;10.70;99.90;;;;;;5051543;28;20202;-68
2022/11/03 09:15:34;;;;;;;2.10;1.85;;;10.90;99.90;;;;;;5051258;28;20234;-68
2022/11/03 09:18:01;;;;;;;3.30;2.28;;;10.90;99.90;;;;;;5051887;28;20202;-68
2022/11/03 09:20:28;;;;;;;3.30;2.50;;;11.10;99.90;;;;;;5051569;28;20212;-68
2022/11/03 09:22:54;;;;;;;3.47;1.90;;;11.20;99.90;;;;;;5048469;28;20323;-67
2022/11/03 09:25:23;;;;;;;5.10;2.70;;;11.30;99.90;;;;;;5051117;28;20217;-69
2022/11/03 09:27:49;;;;;;;2.22;1.95;;;11.30;99.90;;;;;;5051029;28;20197;-68
2022/11/03 09:30:16;;;;;;;2.58;2.22;;;11.50;99.90;;;;;;5049861;28;20332;-69
2022/11/03 09:32:45;;;;;;;5.78;2.97;;;11.50;99.90;;;;;;5048945;28;20205;-69
2022/11/03 09:35:13;;;;;;;5.03;2.70;;;11.70;99.90;;;;;;5049247;28;20236;-69
2022/11/03 09:37:40;;;;;;;4.35;2.50;;;11.70;99.90;;;;;;5049109;28;20205;-68
2022/11/03 09:40:09;;;;;;;3.10;1.88;;;11.80;99.90;;;;;;5049577;28;20202;-68
2022/11/03 09:42:38;;;;;;;2.60;2.40;;;11.90;99.90;;;;;;5049589;28;20221;-69
2022/11/03 09:45:07;;;;;;;2.17;1.98;;;11.90;99.90;;;;;;5050385;28;20225;-68
2022/11/03 09:47:36;;;;;;;3.85;2.45;;;11.80;99.90;;;;;;5049357;28;20738;-69
2022/11/03 09:50:04;;;;;;;2.83;2.28;;;11.70;99.90;;;;;;5050259;28;20607;-67
2022/11/03 09:52:31;;;;;;;2.92;2.25;;;11.70;99.90;;;;;;5049068;28;20217;-67
2022/11/03 09:54:58;;;;;;;3.40;2.00;;;11.60;99.90;;;;;;5049814;28;20233;-67
2022/11/03 09:57:27;;;;;;;2.70;1.85;;;11.60;99.90;;;;;;5050025;28;20213;-68
2022/11/03 09:59:56;;;;;;;2.33;1.85;;;11.60;99.90;;;;;;5049638;28;20676;-69
2022/11/03 10:02:27;;;;;;;4.97;2.13;;;11.50;99.90;;;;;;5049006;28;20224;-68
2022/11/03 10:04:55;;;;;;;2.92;1.90;;;11.50;99.90;;;;;;5049734;28;20240;-69
2022/11/03 10:07:23;;;;;;;2.72;2.10;;;11.40;99.90;;;;;;5049513;28;20300;-68
2022/11/03 10:09:52;;;;;;;2.10;1.77;;;11.40;99.90;;;;;;5047324;28;20202;-68
2022/11/03 10:12:19;;;;;;;2.35;1.80;;;11.40;99.90;;;;;;5046712;28;20205;-68
2022/11/03 10:14:47;;;;;;;2.53;1.80;;;11.30;99.90;;;;;;5049645;28;20225;-69
2022/11/03 10:17:19;;;;;;;3.28;1.90;;;11.30;99.90;;;;;;5048692;28;20826;-68
2022/11/03 10:19:49;;;;;;;2.80;2.00;;;11.20;99.90;;;;;;5049778;28;20210;-68
2022/11/03 10:22:16;;;;;;;3.47;2.15;;;11.20;99.90;;;;;;5048773;28;20208;-68
2022/11/03 10:24:43;;;;;;;2.60;2.33;;;11.20;99.90;;;;;;5048552;28;20225;-68
2022/11/03 10:27:21;;;;;;;4.07;2.35;;;11.20;99.90;;;;;;5049061;28;20209;-69
2022/11/03 10:30:07;;;;;;;2.30;1.70;;;11.20;99.90;;;;;;5049697;28;20267;-68
2022/11/03 10:32:35;;;;;;;2.33;2.00;;;11.20;99.90;;;;;;5048490;28;20220;-68
2022/11/03 10:35:03;;;;;;;1.73;1.63;;;11.20;99.90;;;;;;5049302;28;20217;-68
2022/11/03 10:37:30;;;;;;;3.53;2.20;;;11.20;99.90;;;;;;5048744;28;20201;-68
2022/11/03 10:39:58;;;;;;;2.65;1.50;;;11.20;99.90;;;;;;5048684;28;20297;-67
2022/11/03 10:42:27;;;;;;;2.92;1.70;;;11.10;99.90;;;;;;5048293;28;20209;-68
2022/11/03 10:45:09;;;;;;;2.13;1.92;;;11.20;99.90;;;;;;5048895;28;20229;-68
2022/11/03 10:47:37;;;;;;;3.40;2.22;;;11.20;99.90;;;;;;5048330;28;20206;-66
2022/11/03 10:50:20;;;;;;;3.17;1.90;;;11.30;99.90;;;;;;5048989;28;20580;-66
2022/11/03 10:52:47;;;;;;;2.38;1.90;;;11.30;99.90;;;;;;5029204;28;20224;-69
2022/11/03 10:55:14;;;;;;;4.15;1.80;;;11.50;99.90;;;;;;5029852;28;20232;-68
2022/11/03 10:57:41;;;;;;;3.15;1.63;;;11.70;99.90;;;;;;5029458;28;20980;-71
2022/11/03 11:00:13;;;;;;;3.70;2.40;;;11.70;99.90;;;;;;5029875;28;20218;-69
2022/11/03 11:02:43;;;;;;;3.00;1.75;;;11.80;99.90;;;;;;5028828;28;20380;-68
2022/11/03 11:05:15;;;;;;;3.60;2.17;;;11.90;99.90;;;;;;5029334;28;20222;-68
2022/11/03 11:07:44;;;;;;;3.47;2.47;;;12.00;99.90;;;;;;5029291;28;20280;-69
2022/11/03 11:10:16;;;;;;;2.80;1.80;;;12.10;99.90;;;;;;5029544;28;20461;-68
2022/11/03 11:13:20;;;;;;;3.80;2.13;;;12.00;99.90;;;;;;5029243;28;20492;-68
2022/11/03 11:15:49;;;;;;;3.30;2.22;;;12.00;99.90;;;;;;5026377;28;20906;-67
2022/11/03 11:18:49;;;;;;;4.37;2.37;;;11.90;99.90;;;;;;5029588;28;20209;-69
2022/11/03 11:21:57;;;;;;;3.17;2.20;;;12.00;99.90;;;;;;5029652;28;20453;-67
2022/11/03 11:24:59;;;;;;;2.20;2.00;;;11.90;99.90;;;;;;5028945;28;20233;-68
2022/11/03 11:28:05;;;;;;;6.68;2.45;;;11.90;99.90;;;;;;5029233;28;20210;-68
2022/11/03 11:30:59;;;;;;;3.38;2.38;;;11.90;99.90;;;;;;5028571;28;20575;-68
2022/11/03 11:33:27;;;;;;;3.90;2.35;;;11.90;99.90;;;;;;4993498;28;20202;-67
2022/11/03 11:36:26;;;;;;;2.85;2.28;;;11.90;99.90;;;;;;5029330;28;20238;-68
2022/11/03 11:38:58;;;;;;;2.63;2.40;;;11.90;99.90;;;;;;5029070;28;20676;-67
2022/11/03 11:42:02;;;;;;;5.38;3.85;;;11.90;99.90;;;;;;5028225;28;20198;-67
2022/11/03 11:44:52;;;;;;;2.65;2.45;;;11.90;99.90;;;;;;5028757;28;20678;-67
2022/11/03 11:47:50;;;;;;;3.67;2.70;;;11.90;99.90;;;;;;5020847;28;20206;-67
2022/11/03 11:50:30;;;;;;;3.67;2.83;;;11.90;99.90;;;;;;5029082;28;20203;-67
2022/11/03 11:53:03;;;;;;;3.85;2.42;;;11.90;99.90;;;;;;5028235;28;20610;-66
2022/11/03 11:55:37;;;;;;;2.88;2.10;;;11.90;99.90;;;;;;5032440;28;20237;-67
2022/11/03 11:58:13;;;;;;;3.33;2.78;;;12.00;99.90;;;;;;5049331;28;20205;-68
2022/11/03 12:00:52;;;;;;;4.80;2.50;;;12.00;99.90;;;;;;5050647;28;20212;-67
2022/11/03 12:03:25;;;;;;;5.82;2.30;;;12.00;99.90;;;;;;5051804;28;20613;-67
2022/11/03 12:05:52;;;;;;;5.70;2.60;;;12.00;99.90;;;;;;5052341;28;20839;-67
2022/11/03 12:08:20;;;;;;;2.92;2.63;;;12.00;99.90;;;;;;5052322;28;20261;-66
2022/11/03 12:10:54;;;;;;;3.10;2.20;;;12.00;99.90;;;;;;5052491;28;20330;-67
2022/11/03 12:13:46;;;;;;;3.90;2.45;;;12.00;99.90;;;;;;5049692;28;20197;-67
2022/11/03 12:16:30;;;;;;;4.13;2.30;;;12.00;99.90;;;;;;5049686;28;20218;-68
2022/11/03 12:18:57;;;;;;;2.10;1.90;;;12.10;99.90;;;;;;5052421;28;20202;-68
2022/11/03 12:21:46;;;;;;;3.27;2.90;;;12.10;99.90;;;;;;5051896;28;20264;-68
2022/11/03 12:24:26;;;;;;;2.17;1.80;;;12.20;99.90;;;;;;5052580;28;20484;-69
2022/11/03 12:26:54;;;;;;;3.10;2.13;;;12.20;99.90;;;;;;5114945;22;20488;-67
2022/11/03 12:29:21;;;;;;;3.87;2.37;;;12.20;99.90;;;;;;5052285;28;20452;-68
2022/11/03 12:31:48;;;;;;;5.07;2.50;;;12.20;99.90;;;;;;5052504;28;20460;-67
2022/11/03 12:34:15;;;;;;;3.80;2.33;;;12.20;99.90;;;;;;5055305;28;20849;-67
2022/11/03 12:36:42;;;;;;;2.42;1.90;;;12.30;99.90;;;;;;5071061;28;21124;-68
2022/11/03 12:39:09;;;;;;;3.67;2.00;;;12.30;99.90;;;;;;5072191;28;20201;-66
2022/11/03 12:41:36;;;;;;;2.47;2.28;;;12.30;99.90;;;;;;5070781;28;20459;-67
2022/11/03 12:44:04;;;;;;;3.43;2.00;;;12.40;99.90;;;;;;5071282;28;20715;-66
2022/11/03 12:46:31;;;;;;;4.60;1.97;;;12.40;99.90;;;;;;5071732;28;20466;-66
2022/11/03 12:48:58;;;;;;;3.47;2.20;;;12.40;99.90;;;;;;5071772;28;20466;-67
2022/11/03 12:51:25;;;;;;;5.13;3.20;;;12.50;99.90;;;;;;5069549;28;20467;-67
2022/11/03 12:53:52;;;;;;;4.75;3.50;;;12.50;99.90;;;;;;5071221;28;20451;-66
2022/11/03 12:56:19;;;;;;;11.90;3.43;;;12.50;99.90;;;;;;5071643;28;20221;-68
2022/11/03 12:58:46;;;;;;;7.23;2.97;;;12.50;99.90;;;;;;5071231;28;20466;-67
2022/11/03 13:01:14;;;;;;;5.00;2.67;;;12.50;99.90;;;;;;5070588;28;20463;-67
2022/11/03 13:03:42;;;;;;;7.40;2.80;;;12.50;99.90;;;;;;5071492;28;20494;-68
2022/11/03 13:06:10;;;;;;;4.23;3.20;;;12.50;99.90;;;;;;5070632;28;20835;-67
2022/11/03 13:08:37;;;;;;;3.33;2.57;;;12.50;99.90;;;;;;5071121;28;20462;-68
2022/11/03 13:12:29;;;;;;;4.93;2.90;;;12.50;99.90;;;;;;5070827;28;20451;-66
2022/11/03 13:13:51;;;;;;;3.35;2.40;;;12.50;99.90;;;;;;5050733;28;20432;-67
2022/11/03 13:16:19;;;;;;;4.30;2.80;;;12.50;99.90;;;;;;5050845;28;20221;-67
2022/11/03 13:18:46;;;;;;;2.30;2.10;;;12.50;99.90;;;;;;5050955;28;20463;-67
2022/11/03 13:21:13;;;;;;;4.50;2.30;;;12.50;99.90;;;;;;5049539;28;20464;-66
2022/11/03 13:23:40;;;;;;;4.60;2.60;;;12.50;99.90;;;;;;5050942;28;21010;-67
2022/11/03 13:26:07;;;;;;;4.20;2.67;;;12.50;99.90;;;;;;5050322;28;20502;-67
2022/11/03 13:28:34;;;;;;;4.47;3.33;;;12.60;99.90;;;;;;5050307;28;20473;-67
2022/11/03 13:31:01;;;;;;;4.20;2.93;;;12.50;99.90;;;;;;5050282;28;20839;-66
2022/11/03 13:33:29;;;;;;;5.93;3.13;;;12.50;99.90;;;;;;5050231;28;20506;-67
2022/11/03 13:35:55;;;;;;;4.40;3.40;;;12.40;99.90;;;;;;5127951;22;20499;-66
2022/11/03 13:38:22;;;;;;;4.63;2.70;;;12.50;99.90;;;;;;5069820;28;20480;-68
2022/11/03 13:40:49;;;;;;;3.77;2.90;;;12.50;99.90;;;;;;5070581;28;20455;-68